sensor_id;sensor_type;location;lat;lon;timestamp;pressure;altitude;pressure_sealevel;temperature;humidity
70982;BME280;58640;51.320;9.456;2023-02-11T00:00:47;101072.00;;;0.62;94.41
70982;BME280;58640;51.320;9.456;2023-02-11T00:03:12;101067.91;;;0.55;94.90
70982;BME280;58640;51.320;9.456;2023-02-11T00:05:38;101065.34;;;0.54;95.59
70982;BME280;58640;51.320;9.456;2023-02-11T00:08:03;101062.31;;;0.61;94.85
70982;BME280;58640;51.320;9.456;2023-02-11T00:10:29;101067.50;;;0.46;96.24
70982;BME280;58640;51.320;9.456;2023-02-11T00:12:54;101072.84;;;0.44;95.91
70982;BME280;58640;51.320;9.456;2023-02-11T00:15:20;101072.78;;;0.46;96.26
70982;BME280;58640;51.320;9.456;2023-02-11T00:17:45;101062.69;;;0.54;95.96
70982;BME280;58640;51.320;9.456;2023-02-11T00:20:10;101054.97;;;0.49;96.68
70982;BME280;58640;51.320;9.456;2023-02-11T00:22:36;101046.66;;;0.57;96.63
70982;BME280;58640;51.320;9.456;2023-02-11T00:25:01;101043.94;;;0.58;96.50
70982;BME280;58640;51.320;9.456;2023-02-11T00:27:27;101043.31;;;0.70;95.78
70982;BME280;58640;51.320;9.456;2023-02-11T00:29:52;101024.78;;;0.70;95.20
70982;BME280;58640;51.320;9.456;2023-02-11T00:32:17;101021.69;;;0.62;96.50
70982;BME280;58640;51.320;9.456;2023-02-11T00:34:43;101026.81;;;0.65;95.88
70982;BME280;58640;51.320;9.456;2023-02-11T00:37:08;101016.91;;;0.69;95.77
70982;BME280;58640;51.320;9.456;2023-02-11T00:39:35;101015.78;;;0.74;95.52
70982;BME280;58640;51.320;9.456;2023-02-11T00:42:01;101015.63;;;0.77;95.57
70982;BME280;58640;51.320;9.456;2023-02-11T00:44:26;101014.91;;;0.74;96.13
70982;BME280;58640;51.320;9.456;2023-02-11T00:46:51;101023.88;;;0.71;96.45
70982;BME280;58640;51.320;9.456;2023-02-11T00:49:17;101011.81;;;0.83;95.74
70982;BME280;58640;51.320;9.456;2023-02-11T00:51:42;100999.88;;;0.74;96.06
70982;BME280;58640;51.320;9.456;2023-02-11T00:54:07;100993.75;;;0.91;95.38
70982;BME280;58640;51.320;9.456;2023-02-11T00:56:33;101006.38;;;0.86;95.71
70982;BME280;58640;51.320;9.456;2023-02-11T00:58:59;101007.34;;;0.83;96.08
70982;BME280;58640;51.320;9.456;2023-02-11T01:01:24;100998.09;;;0.75;96.65
70982;BME280;58640;51.320;9.456;2023-02-11T01:03:50;100998.66;;;0.81;96.71
70982;BME280;58640;51.320;9.456;2023-02-11T01:06:16;100993.19;;;0.84;96.37
70982;BME280;58640;51.320;9.456;2023-02-11T01:08:41;100993.84;;;0.89;96.33
70982;BME280;58640;51.320;9.456;2023-02-11T01:11:12;100999.66;;;0.96;96.59
70982;BME280;58640;51.320;9.456;2023-02-11T01:13:37;101002.00;;;1.02;96.88
70982;BME280;58640;51.320;9.456;2023-02-11T01:16:05;101008.78;;;1.24;95.29
70982;BME280;58640;51.320;9.456;2023-02-11T01:18:31;101010.50;;;1.25;94.79
70982;BME280;58640;51.320;9.456;2023-02-11T01:20:57;101002.47;;;1.27;95.32
70982;BME280;58640;51.320;9.456;2023-02-11T01:23:22;101003.50;;;1.24;95.45
70982;BME280;58640;51.320;9.456;2023-02-11T01:25:48;101008.31;;;1.33;95.17
70982;BME280;58640;51.320;9.456;2023-02-11T01:28:16;101011.81;;;1.34;94.85
70982;BME280;58640;51.320;9.456;2023-02-11T01:30:42;101016.59;;;1.27;95.40
70982;BME280;58640;51.320;9.456;2023-02-11T01:33:08;101017.25;;;1.31;95.23
70982;BME280;58640;51.320;9.456;2023-02-11T01:35:33;101016.25;;;1.33;95.10
70982;BME280;58640;51.320;9.456;2023-02-11T01:37:58;101026.94;;;1.32;94.74
70982;BME280;58640;51.320;9.456;2023-02-11T01:40:24;101038.16;;;1.37;94.90
70982;BME280;58640;51.320;9.456;2023-02-11T01:42:49;101038.44;;;1.65;93.47
70982;BME280;58640;51.320;9.456;2023-02-11T01:48:21;101027.09;;;1.79;92.52
70982;BME280;58640;51.320;9.456;2023-02-11T01:50:50;101021.47;;;1.85;91.95
70982;BME280;58640;51.320;9.456;2023-02-11T01:53:17;101022.03;;;1.74;92.47
70982;BME280;58640;51.320;9.456;2023-02-11T01:56:02;101016.44;;;1.96;91.62
70982;BME280;58640;51.320;9.456;2023-02-11T01:58:46;101011.31;;;1.76;92.35
70982;BME280;58640;51.320;9.456;2023-02-11T02:01:15;101017.53;;;1.92;91.70
70982;BME280;58640;51.320;9.456;2023-02-11T02:03:44;101015.28;;;1.84;91.98
70982;BME280;58640;51.320;9.456;2023-02-11T02:06:18;101001.50;;;1.78;92.57
70982;BME280;58640;51.320;9.456;2023-02-11T02:08:52;101006.09;;;1.74;93.17
70982;BME280;58640;51.320;9.456;2023-02-11T02:11:19;101019.97;;;1.79;92.38
70982;BME280;58640;51.320;9.456;2023-02-11T02:13:45;101010.50;;;1.75;92.76
70982;BME280;58640;51.320;9.456;2023-02-11T02:16:12;100997.31;;;1.74;92.83
70982;BME280;58640;51.320;9.456;2023-02-11T02:18:55;100991.47;;;1.67;93.71
70982;BME280;58640;51.320;9.456;2023-02-11T02:35:42;100964.84;;;1.53;95.00
70982;BME280;58640;51.320;9.456;2023-02-11T02:38:30;100956.22;;;1.65;93.71
70982;BME280;58640;51.320;9.456;2023-02-11T02:41:05;100961.53;;;1.65;93.17
70982;BME280;58640;51.320;9.456;2023-02-11T02:43:32;100967.94;;;1.61;94.25
70982;BME280;58640;51.320;9.456;2023-02-11T02:46:19;100978.31;;;1.66;94.05
70982;BME280;58640;51.320;9.456;2023-02-11T02:48:48;100988.56;;;1.72;93.75
70982;BME280;58640;51.320;9.456;2023-02-11T02:51:36;100978.66;;;1.75;93.53
70982;BME280;58640;51.320;9.456;2023-02-11T02:57:37;100974.88;;;1.64;94.04
70982;BME280;58640;51.320;9.456;2023-02-11T03:06:14;100964.88;;;1.69;93.76
70982;BME280;58640;51.320;9.456;2023-02-11T03:08:46;100971.19;;;1.66;93.99
70982;BME280;58640;51.320;9.456;2023-02-11T03:11:16;100963.59;;;1.76;93.65
70982;BME280;58640;51.320;9.456;2023-02-11T03:13:44;100946.22;;;1.70;93.75
70982;BME280;58640;51.320;9.456;2023-02-11T03:16:25;100940.41;;;1.79;93.49
70982;BME280;58640;51.320;9.456;2023-02-11T03:21:37;100930.56;;;1.66;93.69
70982;BME280;58640;51.320;9.456;2023-02-11T03:24:13;100934.50;;;1.74;93.63
70982;BME280;58640;51.320;9.456;2023-02-11T03:26:56;100941.78;;;1.86;92.72
70982;BME280;58640;51.320;9.456;2023-02-11T03:29:29;100931.25;;;1.85;92.87
70982;BME280;58640;51.320;9.456;2023-02-11T03:34:45;100947.34;;;1.82;93.35
70982;BME280;58640;51.320;9.456;2023-02-11T03:37:15;100939.56;;;1.79;93.66
70982;BME280;58640;51.320;9.456;2023-02-11T03:39:46;100927.13;;;1.64;94.53
70982;BME280;58640;51.320;9.456;2023-02-11T03:42:13;100918.50;;;1.76;94.11
70982;BME280;58640;51.320;9.456;2023-02-11T03:44:46;100920.66;;;1.85;93.28
70982;BME280;58640;51.320;9.456;2023-02-11T03:47:15;100920.81;;;1.82;93.07
70982;BME280;58640;51.320;9.456;2023-02-11T03:49:45;100921.56;;;1.84;93.46
70982;BME280;58640;51.320;9.456;2023-02-11T03:52:14;100918.44;;;1.93;92.82
70982;BME280;58640;51.320;9.456;2023-02-11T03:54:42;100907.31;;;1.86;93.42
70982;BME280;58640;51.320;9.456;2023-02-11T03:57:10;100911.72;;;2.01;92.64
70982;BME280;58640;51.320;9.456;2023-02-11T03:59:56;100905.78;;;1.98;93.01
70982;BME280;58640;51.320;9.456;2023-02-11T04:02:30;100908.06;;;2.04;92.89
70982;BME280;58640;51.320;9.456;2023-02-11T04:04:57;100909.16;;;2.00;92.82
70982;BME280;58640;51.320;9.456;2023-02-11T04:07:23;100916.69;;;1.92;93.63
70982;BME280;58640;51.320;9.456;2023-02-11T04:09:48;100911.66;;;2.03;92.83
70982;BME280;58640;51.320;9.456;2023-02-11T04:12:14;100904.38;;;2.06;92.93
70982;BME280;58640;51.320;9.456;2023-02-11T04:14:39;100907.47;;;1.99;93.19
70982;BME280;58640;51.320;9.456;2023-02-11T04:17:05;100915.00;;;1.91;94.69
70982;BME280;58640;51.320;9.456;2023-02-11T04:19:30;100905.84;;;1.96;94.51
70982;BME280;58640;51.320;9.456;2023-02-11T04:21:56;100909.16;;;2.00;94.32
70982;BME280;58640;51.320;9.456;2023-02-11T04:24:21;100906.94;;;1.92;94.26
70982;BME280;58640;51.320;9.456;2023-02-11T04:26:47;100898.03;;;1.93;94.75
70982;BME280;58640;51.320;9.456;2023-02-11T04:29:12;100898.91;;;1.94;94.69
70982;BME280;58640;51.320;9.456;2023-02-11T04:31:37;100889.91;;;2.12;93.19
70982;BME280;58640;51.320;9.456;2023-02-11T04:34:03;100887.53;;;2.07;93.54
70982;BME280;58640;51.320;9.456;2023-02-11T04:36:28;100881.19;;;2.10;93.23
70982;BME280;58640;51.320;9.456;2023-02-11T04:38:54;100875.88;;;2.10;93.33
70982;BME280;58640;51.320;9.456;2023-02-11T04:41:19;100881.03;;;1.97;94.20
70982;BME280;58640;51.320;9.456;2023-02-11T04:43:44;100881.09;;;2.11;93.67
70982;BME280;58640;51.320;9.456;2023-02-11T04:46:10;100880.59;;;2.05;93.50
70982;BME280;58640;51.320;9.456;2023-02-11T04:48:35;100886.16;;;2.00;94.24
70982;BME280;58640;51.320;9.456;2023-02-11T04:51:01;100892.16;;;2.04;93.96
70982;BME280;58640;51.320;9.456;2023-02-11T04:53:26;100906.53;;;2.15;93.42
70982;BME280;58640;51.320;9.456;2023-02-11T04:55:52;100898.38;;;2.18;92.95
70982;BME280;58640;51.320;9.456;2023-02-11T04:58:18;100904.53;;;2.19;92.93
70982;BME280;58640;51.320;9.456;2023-02-11T05:00:44;100896.38;;;2.37;92.04
70982;BME280;58640;51.320;9.456;2023-02-11T05:03:09;100905.47;;;2.18;92.97
70982;BME280;58640;51.320;9.456;2023-02-11T05:05:38;100894.78;;;2.19;92.65
70982;BME280;58640;51.320;9.456;2023-02-11T05:08:04;100901.53;;;2.09;93.51
70982;BME280;58640;51.320;9.456;2023-02-11T05:10:30;100892.72;;;2.24;93.05
70982;BME280;58640;51.320;9.456;2023-02-11T05:12:55;100891.34;;;2.17;93.11
70982;BME280;58640;51.320;9.456;2023-02-11T05:15:20;100888.03;;;2.14;93.42
70982;BME280;58640;51.320;9.456;2023-02-11T05:17:46;100885.94;;;2.19;93.35
70982;BME280;58640;51.320;9.456;2023-02-11T05:20:11;100875.50;;;2.16;93.91
70982;BME280;58640;51.320;9.456;2023-02-11T05:22:37;100874.41;;;2.20;93.38
70982;BME280;58640;51.320;9.456;2023-02-11T05:25:02;100861.81;;;2.08;94.07
70982;BME280;58640;51.320;9.456;2023-02-11T05:27:27;100866.03;;;2.12;94.09
70982;BME280;58640;51.320;9.456;2023-02-11T05:29:53;100866.44;;;2.20;93.55
70982;BME280;58640;51.320;9.456;2023-02-11T05:32:18;100877.88;;;2.36;92.56
70982;BME280;58640;51.320;9.456;2023-02-11T05:34:43;100878.94;;;2.18;93.43
70982;BME280;58640;51.320;9.456;2023-02-11T05:37:09;100884.56;;;2.27;93.04
70982;BME280;58640;51.320;9.456;2023-02-11T05:39:34;100877.97;;;2.34;92.24
70982;BME280;58640;51.320;9.456;2023-02-11T05:41:59;100894.78;;;2.19;93.42
70982;BME280;58640;51.320;9.456;2023-02-11T05:44:25;100881.41;;;2.21;94.26
70982;BME280;58640;51.320;9.456;2023-02-11T05:46:50;100888.78;;;2.31;92.73
70982;BME280;58640;51.320;9.456;2023-02-11T05:49:16;100885.63;;;2.25;93.26
70982;BME280;58640;51.320;9.456;2023-02-11T05:51:42;100880.56;;;2.20;93.96
70982;BME280;58640;51.320;9.456;2023-02-11T05:54:07;100896.66;;;2.33;92.94
70982;BME280;58640;51.320;9.456;2023-02-11T05:56:33;100894.50;;;2.39;92.26
70982;BME280;58640;51.320;9.456;2023-02-11T05:58:59;100898.44;;;2.32;93.07
70982;BME280;58640;51.320;9.456;2023-02-11T06:01:24;100901.97;;;2.33;93.33
70982;BME280;58640;51.320;9.456;2023-02-11T06:03:50;100894.75;;;2.35;92.94
70982;BME280;58640;51.320;9.456;2023-02-11T06:06:16;100899.88;;;2.38;92.85
70982;BME280;58640;51.320;9.456;2023-02-11T06:08:41;100891.75;;;2.41;92.96
70982;BME280;58640;51.320;9.456;2023-02-11T06:11:07;100889.63;;;2.32;93.26
70982;BME280;58640;51.320;9.456;2023-02-11T06:13:33;100884.66;;;2.26;93.58
70982;BME280;58640;51.320;9.456;2023-02-11T06:16:00;100890.25;;;2.21;94.09
70982;BME280;58640;51.320;9.456;2023-02-11T06:18:26;100898.91;;;2.25;93.92
70982;BME280;58640;51.320;9.456;2023-02-11T06:20:51;100894.50;;;2.24;93.84
70982;BME280;58640;51.320;9.456;2023-02-11T06:23:17;100900.19;;;2.18;94.30
70982;BME280;58640;51.320;9.456;2023-02-11T06:25:42;100899.31;;;2.17;94.40
70982;BME280;58640;51.320;9.456;2023-02-11T06:28:07;100899.31;;;2.17;94.83
70982;BME280;58640;51.320;9.456;2023-02-11T06:30:35;100898.56;;;2.15;94.54
70982;BME280;58640;51.320;9.456;2023-02-11T06:33:01;100897.84;;;2.27;94.09
70982;BME280;58640;51.320;9.456;2023-02-11T06:35:26;100906.16;;;2.21;94.43
70982;BME280;58640;51.320;9.456;2023-02-11T06:37:52;100906.66;;;2.12;95.16
70982;BME280;58640;51.320;9.456;2023-02-11T06:40:18;100896.06;;;2.12;95.51
70982;BME280;58640;51.320;9.456;2023-02-11T06:42:43;100895.56;;;2.21;94.84
70982;BME280;58640;51.320;9.456;2023-02-11T06:45:09;100898.91;;;2.25;94.63
70982;BME280;58640;51.320;9.456;2023-02-11T06:47:37;100888.41;;;2.37;93.76
70982;BME280;58640;51.320;9.456;2023-02-11T06:50:03;100898.00;;;2.40;93.73
70982;BME280;58640;51.320;9.456;2023-02-11T06:52:28;100902.72;;;2.35;93.70
70982;BME280;58640;51.320;9.456;2023-02-11T06:54:54;100915.88;;;2.36;94.09
70982;BME280;58640;51.320;9.456;2023-02-11T06:57:19;100916.75;;;2.37;94.28
70982;BME280;58640;51.320;9.456;2023-02-11T06:59:44;100912.63;;;2.47;93.62
70982;BME280;58640;51.320;9.456;2023-02-11T07:02:10;100905.06;;;2.55;92.77
70982;BME280;58640;51.320;9.456;2023-02-11T07:04:35;100906.38;;;2.48;93.33
70982;BME280;58640;51.320;9.456;2023-02-11T07:07:00;100903.63;;;2.49;93.45
70982;BME280;58640;51.320;9.456;2023-02-11T07:09:26;100905.16;;;2.53;92.83
70982;BME280;58640;51.320;9.456;2023-02-11T07:11:51;100911.22;;;2.55;92.86
70982;BME280;58640;51.320;9.456;2023-02-11T07:14:16;100914.28;;;2.63;92.50
70982;BME280;58640;51.320;9.456;2023-02-11T07:16:42;100912.97;;;2.56;93.02
70982;BME280;58640;51.320;9.456;2023-02-11T07:19:07;100904.22;;;2.54;92.94
70982;BME280;58640;51.320;9.456;2023-02-11T07:21:33;100906.53;;;2.74;92.36
70982;BME280;58640;51.320;9.456;2023-02-11T07:23:58;100903.34;;;2.83;91.50
70982;BME280;58640;51.320;9.456;2023-02-11T07:26:24;100919.09;;;2.72;92.07
70982;BME280;58640;51.320;9.456;2023-02-11T07:28:53;100917.63;;;2.67;92.37
70982;BME280;58640;51.320;9.456;2023-02-11T07:31:21;100918.81;;;2.77;92.30
70982;BME280;58640;51.320;9.456;2023-02-11T07:33:48;100927.97;;;3.01;91.56
70982;BME280;58640;51.320;9.456;2023-02-11T07:36:15;100916.16;;;2.77;92.25
70982;BME280;58640;51.320;9.456;2023-02-11T07:38:41;100921.38;;;2.78;92.08
70982;BME280;58640;51.320;9.456;2023-02-11T07:41:13;100916.84;;;2.65;93.58
70982;BME280;58640;51.320;9.456;2023-02-11T07:43:40;100922.94;;;2.67;93.44
70982;BME280;58640;51.320;9.456;2023-02-11T07:46:09;100919.34;;;2.68;93.22
70982;BME280;58640;51.320;9.456;2023-02-11T07:48:35;100930.94;;;2.81;92.47
70982;BME280;58640;51.320;9.456;2023-02-11T07:51:05;100926.41;;;2.83;92.56
70982;BME280;58640;51.320;9.456;2023-02-11T07:53:30;100929.63;;;2.74;93.08
70982;BME280;58640;51.320;9.456;2023-02-11T07:55:56;100929.16;;;2.81;92.85
70982;BME280;58640;51.320;9.456;2023-02-11T07:58:21;100929.13;;;2.67;94.08
70982;BME280;58640;51.320;9.456;2023-02-11T08:00:46;100929.97;;;2.68;93.48
70982;BME280;58640;51.320;9.456;2023-02-11T08:03:12;100944.78;;;2.72;93.60
70982;BME280;58640;51.320;9.456;2023-02-11T08:05:37;100946.84;;;2.67;94.00
70982;BME280;58640;51.320;9.456;2023-02-11T08:08:03;100939.75;;;2.67;94.08
70982;BME280;58640;51.320;9.456;2023-02-11T08:10:28;100940.34;;;2.72;93.78
70982;BME280;58640;51.320;9.456;2023-02-11T08:12:54;100943.13;;;2.85;93.75
70982;BME280;58640;51.320;9.456;2023-02-11T08:15:19;100941.97;;;2.89;93.06
70982;BME280;58640;51.320;9.456;2023-02-11T08:17:44;100948.97;;;3.06;91.68
70982;BME280;58640;51.320;9.456;2023-02-11T08:20:10;100956.75;;;3.09;91.74
70982;BME280;58640;51.320;9.456;2023-02-11T08:22:36;100949.06;;;3.04;91.44
70982;BME280;58640;51.320;9.456;2023-02-11T08:25:01;100956.47;;;3.13;91.68
70982;BME280;58640;51.320;9.456;2023-02-11T08:27:27;100960.38;;;3.08;92.28
70982;BME280;58640;51.320;9.456;2023-02-11T08:29:53;100961.66;;;3.00;93.22
70982;BME280;58640;51.320;9.456;2023-02-11T08:32:19;100959.13;;;3.13;92.04
70982;BME280;58640;51.320;9.456;2023-02-11T08:34:44;100959.91;;;3.15;91.81
70982;BME280;58640;51.320;9.456;2023-02-11T08:37:10;100959.09;;;2.99;92.77
70982;BME280;58640;51.320;9.456;2023-02-11T08:39:36;100952.00;;;3.14;91.86
70982;BME280;58640;51.320;9.456;2023-02-11T08:42:01;100958.28;;;3.13;91.44
70982;BME280;58640;51.320;9.456;2023-02-11T08:44:27;100961.38;;;3.05;91.77
70982;BME280;58640;51.320;9.456;2023-02-11T08:46:53;100965.88;;;3.05;92.24
70982;BME280;58640;51.320;9.456;2023-02-11T08:49:19;100969.72;;;3.29;91.27
70982;BME280;58640;51.320;9.456;2023-02-11T08:51:45;100966.59;;;3.36;90.58
70982;BME280;58640;51.320;9.456;2023-02-11T08:54:11;100969.03;;;3.25;90.70
70982;BME280;58640;51.320;9.456;2023-02-11T08:56:37;100963.72;;;3.25;91.16
70982;BME280;58640;51.320;9.456;2023-02-11T08:59:03;100970.94;;;3.23;91.14
70982;BME280;58640;51.320;9.456;2023-02-11T09:01:30;100963.63;;;3.41;90.47
70982;BME280;58640;51.320;9.456;2023-02-11T09:03:56;100967.69;;;3.32;91.02
70982;BME280;58640;51.320;9.456;2023-02-11T09:06:23;100967.53;;;3.49;89.70
70982;BME280;58640;51.320;9.456;2023-02-11T09:08:51;100975.13;;;3.41;90.40
70982;BME280;58640;51.320;9.456;2023-02-11T09:11:20;100982.06;;;3.30;90.79
70982;BME280;58640;51.320;9.456;2023-02-11T09:13:46;100984.91;;;3.41;90.64
70982;BME280;58640;51.320;9.456;2023-02-11T09:16:20;100986.50;;;3.29;90.70
70982;BME280;58640;51.320;9.456;2023-02-11T09:18:45;100976.66;;;3.45;90.21
70982;BME280;58640;51.320;9.456;2023-02-11T09:21:12;100985.00;;;3.53;90.29
70982;BME280;58640;51.320;9.456;2023-02-11T09:23:38;100982.25;;;3.55;90.06
70982;BME280;58640;51.320;9.456;2023-02-11T09:26:07;100977.13;;;3.66;89.46
70982;BME280;58640;51.320;9.456;2023-02-11T09:28:33;100977.22;;;3.78;88.57
70982;BME280;58640;51.320;9.456;2023-02-11T09:30:58;100974.00;;;3.87;87.71
70982;BME280;58640;51.320;9.456;2023-02-11T09:33:23;100968.25;;;4.07;87.22
70982;BME280;58640;51.320;9.456;2023-02-11T09:35:49;100965.03;;;4.16;86.35
70982;BME280;58640;51.320;9.456;2023-02-11T09:38:14;100967.66;;;4.30;85.89
70982;BME280;58640;51.320;9.456;2023-02-11T09:40:44;100972.59;;;4.36;85.83
70982;BME280;58640;51.320;9.456;2023-02-11T09:43:21;100977.66;;;4.53;85.51
70982;BME280;58640;51.320;9.456;2023-02-11T09:45:48;100971.25;;;4.83;83.24
70982;BME280;58640;51.320;9.456;2023-02-11T09:48:18;100971.06;;;4.86;83.89
70982;BME280;58640;51.320;9.456;2023-02-11T09:50:54;100979.41;;;5.06;82.73
70982;BME280;58640;51.320;9.456;2023-02-11T09:53:24;100975.63;;;5.23;82.54
70982;BME280;58640;51.320;9.456;2023-02-11T09:55:55;100967.31;;;5.52;80.69
70982;BME280;58640;51.320;9.456;2023-02-11T09:58:26;100970.84;;;5.40;81.13
70982;BME280;58640;51.320;9.456;2023-02-11T10:01:07;100968.28;;;5.39;81.26
70982;BME280;58640;51.320;9.456;2023-02-11T10:09:19;100981.97;;;5.84;79.14
70982;BME280;58640;51.320;9.456;2023-02-11T10:17:57;100980.66;;;6.03;79.28
70982;BME280;58640;51.320;9.456;2023-02-11T10:20:37;100988.34;;;5.69;78.99
70982;BME280;58640;51.320;9.456;2023-02-11T10:23:17;100998.94;;;5.58;80.15
70982;BME280;58640;51.320;9.456;2023-02-11T10:25:47;101002.75;;;5.67;80.30
70982;BME280;58640;51.320;9.456;2023-02-11T10:28:21;101013.75;;;5.50;80.14
70982;BME280;58640;51.320;9.456;2023-02-11T10:30:56;101010.88;;;5.53;79.83
70982;BME280;58640;51.320;9.456;2023-02-11T10:36:11;101007.19;;;5.16;81.86
70982;BME280;58640;51.320;9.456;2023-02-11T10:38:37;101017.34;;;5.24;81.22
70982;BME280;58640;51.320;9.456;2023-02-11T10:41:03;101023.00;;;5.32;81.06
70982;BME280;58640;51.320;9.456;2023-02-11T10:43:29;101025.75;;;5.18;81.65
70982;BME280;58640;51.320;9.456;2023-02-11T10:45:56;101020.06;;;5.10;82.27
70982;BME280;58640;51.320;9.456;2023-02-11T10:48:35;101008.06;;;5.17;82.28
70982;BME280;58640;51.320;9.456;2023-02-11T10:54:09;101010.88;;;5.01;82.91
70982;BME280;58640;51.320;9.456;2023-02-11T10:56:44;101017.84;;;5.04;82.56
70982;BME280;58640;51.320;9.456;2023-02-11T11:01:49;101024.66;;;5.08;82.54
70982;BME280;58640;51.320;9.456;2023-02-11T11:09:50;101017.00;;;5.16;82.37
70982;BME280;58640;51.320;9.456;2023-02-11T11:14:56;101013.84;;;5.23;83.09
70982;BME280;58640;51.320;9.456;2023-02-11T11:17:22;101019.47;;;5.31;82.60
70982;BME280;58640;51.320;9.456;2023-02-11T11:19:48;101019.19;;;5.36;82.38
70982;BME280;58640;51.320;9.456;2023-02-11T11:22:20;101016.84;;;5.44;82.32
70982;BME280;58640;51.320;9.456;2023-02-11T11:24:47;101024.97;;;5.55;82.06
70982;BME280;58640;51.320;9.456;2023-02-11T11:27:20;101027.00;;;5.51;82.08
70982;BME280;58640;51.320;9.456;2023-02-11T11:29:52;101028.59;;;5.66;82.01
70982;BME280;58640;51.320;9.456;2023-02-11T11:32:21;101022.84;;;5.72;81.18
70982;BME280;58640;51.320;9.456;2023-02-11T11:34:52;101018.97;;;5.76;80.58
70982;BME280;58640;51.320;9.456;2023-02-11T11:37:26;101023.81;;;5.84;81.00
70982;BME280;58640;51.320;9.456;2023-02-11T11:39:59;101015.25;;;5.79;81.04
70982;BME280;58640;51.320;9.456;2023-02-11T11:42:34;101023.50;;;5.76;81.15
70982;BME280;58640;51.320;9.456;2023-02-11T11:45:24;101011.72;;;5.78;81.04
70982;BME280;58640;51.320;9.456;2023-02-11T11:50:44;101002.13;;;5.76;81.86
70982;BME280;58640;51.320;9.456;2023-02-11T11:53:15;100993.47;;;6.10;79.97
70982;BME280;58640;51.320;9.456;2023-02-11T11:55:48;101002.03;;;5.90;80.52
70982;BME280;58640;51.320;9.456;2023-02-11T11:58:19;101000.06;;;5.79;81.74
70982;BME280;58640;51.320;9.456;2023-02-11T12:04:52;101009.69;;;5.57;83.89
70982;BME280;58640;51.320;9.456;2023-02-11T12:18:06;100993.16;;;5.77;83.37
70982;BME280;58640;51.320;9.456;2023-02-11T12:24:18;101005.75;;;5.75;83.31
70982;BME280;58640;51.320;9.456;2023-02-11T12:26:55;101011.97;;;5.88;83.10
70982;BME280;58640;51.320;9.456;2023-02-11T12:32:28;100998.84;;;5.85;83.06
70982;BME280;58640;51.320;9.456;2023-02-11T12:35:23;100992.75;;;5.83;83.33
70982;BME280;58640;51.320;9.456;2023-02-11T12:38:16;100992.72;;;5.70;84.69
70982;BME280;58640;51.320;9.456;2023-02-11T12:43:37;100990.16;;;5.94;82.61
70982;BME280;58640;51.320;9.456;2023-02-11T12:54:57;100992.94;;;5.92;83.05
70982;BME280;58640;51.320;9.456;2023-02-11T12:57:27;100996.06;;;5.86;83.53
70982;BME280;58640;51.320;9.456;2023-02-11T13:00:15;100985.91;;;5.79;83.48
70982;BME280;58640;51.320;9.456;2023-02-11T13:03:06;100989.50;;;5.78;84.13
70982;BME280;58640;51.320;9.456;2023-02-11T13:05:54;100996.56;;;5.79;83.94
70982;BME280;58640;51.320;9.456;2023-02-11T13:08:28;100983.69;;;5.85;84.06
70982;BME280;58640;51.320;9.456;2023-02-11T13:10:57;100992.41;;;6.00;83.07
70982;BME280;58640;51.320;9.456;2023-02-11T13:13:34;100985.03;;;6.04;83.11
70982;BME280;58640;51.320;9.456;2023-02-11T13:16:05;100993.22;;;6.13;82.44
70982;BME280;58640;51.320;9.456;2023-02-11T13:18:50;100983.53;;;6.12;83.10
70982;BME280;58640;51.320;9.456;2023-02-11T13:24:43;100979.66;;;6.16;83.33
70982;BME280;58640;51.320;9.456;2023-02-11T13:33:02;100982.63;;;6.24;82.85
70982;BME280;58640;51.320;9.456;2023-02-11T13:35:39;100980.72;;;6.26;83.46
70982;BME280;58640;51.320;9.456;2023-02-11T13:40:35;100986.38;;;6.58;81.81
70982;BME280;58640;51.320;9.456;2023-02-11T13:43:04;100980.38;;;6.67;81.44
70982;BME280;58640;51.320;9.456;2023-02-11T13:47:59;100979.66;;;6.52;81.86
70982;BME280;58640;51.320;9.456;2023-02-11T13:50:26;100986.53;;;6.67;81.60
70982;BME280;58640;51.320;9.456;2023-02-11T13:53:01;100985.00;;;6.76;81.38
70982;BME280;58640;51.320;9.456;2023-02-11T13:55:28;100986.72;;;6.53;81.93
70982;BME280;58640;51.320;9.456;2023-02-11T14:03:24;100985.47;;;6.34;83.42
70982;BME280;58640;51.320;9.456;2023-02-11T14:14:22;100993.50;;;6.34;83.36
70982;BME280;58640;51.320;9.456;2023-02-11T14:19:39;100983.44;;;6.37;83.38
70982;BME280;58640;51.320;9.456;2023-02-11T14:24:51;100998.56;;;6.13;84.63
70982;BME280;58640;51.320;9.456;2023-02-11T14:27:30;100990.59;;;6.49;83.47
70982;BME280;58640;51.320;9.456;2023-02-11T14:38:55;101006.69;;;6.12;85.39
70982;BME280;58640;51.320;9.456;2023-02-11T14:41:25;101001.44;;;6.23;85.10
70982;BME280;58640;51.320;9.456;2023-02-11T14:43:55;101005.44;;;6.17;85.28
70982;BME280;58640;51.320;9.456;2023-02-11T14:46:23;101014.72;;;6.12;85.41
70982;BME280;58640;51.320;9.456;2023-02-11T14:48:52;101013.44;;;6.17;85.56
70982;BME280;58640;51.320;9.456;2023-02-11T14:51:24;101011.28;;;6.22;85.36
70982;BME280;58640;51.320;9.456;2023-02-11T14:53:53;101019.81;;;6.27;84.87
70982;BME280;58640;51.320;9.456;2023-02-11T14:56:24;101024.22;;;6.28;85.02
70982;BME280;58640;51.320;9.456;2023-02-11T14:58:51;101031.94;;;6.08;86.19
70982;BME280;58640;51.320;9.456;2023-02-11T15:01:34;101034.06;;;6.15;85.50
70982;BME280;58640;51.320;9.456;2023-02-11T15:04:02;101036.19;;;6.10;85.69
70982;BME280;58640;51.320;9.456;2023-02-11T15:06:36;101028.25;;;6.34;85.30
70982;BME280;58640;51.320;9.456;2023-02-11T15:09:06;101024.84;;;6.32;84.89
70982;BME280;58640;51.320;9.456;2023-02-11T15:11:38;101033.09;;;6.04;86.70
70982;BME280;58640;51.320;9.456;2023-02-11T15:14:10;101041.75;;;6.07;86.32
70982;BME280;58640;51.320;9.456;2023-02-11T15:16:41;101038.44;;;6.16;85.89
70982;BME280;58640;51.320;9.456;2023-02-11T15:19:18;101040.91;;;6.07;86.69
70982;BME280;58640;51.320;9.456;2023-02-11T15:21:45;101044.97;;;6.00;87.24
70982;BME280;58640;51.320;9.456;2023-02-11T15:24:29;101044.13;;;5.99;87.38
70982;BME280;58640;51.320;9.456;2023-02-11T15:27:15;101052.13;;;5.99;87.35